TAM4756 SBGL-SBFI
Flight info
| Callsign | TAM4756 |
|---|---|
| Flight time | 1h 48m |
| Altitude | 34000 |
| Route | NAXOP UZ45 RAXIT DCT DIDOM |
| Aircraft | A20N/M-SDE2E3FGHIRWXY/LB1 |
Departure
| Time | 2026-05-07 23:53 |
|---|---|
| Airport | Rio Galeão – Tom Jobim International Airport (SBGL) |
Arrival
| Time | 2026-05-08 01:42 |
|---|---|
| Airport | Cataratas International Airport (SBFI) |
| Time | Latitude | Longitude | Altitude | Speed | Heading |
|---|---|---|---|---|---|
| 2026-05-07 23:08 | -22.81594 | -43.24701 | 31 ft | 0 kts | 32° |
| 2026-05-07 23:39 | -22.81596 | -43.24702 | 31 ft | 1 kts | 32° |
| 2026-05-07 23:40 | -22.81609 | -43.24710 | 31 ft | 2 kts | 32° |
| 2026-05-07 23:40 | -22.81620 | -43.24718 | 31 ft | 0 kts | 32° |
| 2026-05-07 23:40 | -22.81630 | -43.24724 | 31 ft | 2 kts | 13° |
| 2026-05-07 23:40 | -22.81645 | -43.24725 | 31 ft | 2 kts | 349° |
| 2026-05-07 23:41 | -22.81659 | -43.24719 | 31 ft | 2 kts | 324° |
| 2026-05-07 23:41 | -22.81666 | -43.24712 | 31 ft | 0 kts | 307° |
| 2026-05-07 23:41 | -22.81670 | -43.24705 | 31 ft | 0 kts | 303° |
| 2026-05-07 23:43 | -22.81670 | -43.24706 | 31 ft | 0 kts | 304° |
| 2026-05-07 23:44 | -22.81662 | -43.24721 | 31 ft | 4 kts | 294° |
| 2026-05-07 23:44 | -22.81644 | -43.24771 | 31 ft | 9 kts | 292° |
| 2026-05-07 23:44 | -22.81605 | -43.24841 | 31 ft | 11 kts | 306° |
| 2026-05-07 23:44 | -22.81548 | -43.24914 | 31 ft | 13 kts | 307° |
| 2026-05-07 23:45 | -22.81491 | -43.24987 | 31 ft | 12 kts | 303° |
| 2026-05-07 23:45 | -22.81442 | -43.25064 | 31 ft | 12 kts | 304° |
| 2026-05-07 23:45 | -22.81456 | -43.25136 | 31 ft | 11 kts | 218° |
| 2026-05-07 23:45 | -22.81518 | -43.25185 | 31 ft | 11 kts | 216° |
| 2026-05-07 23:46 | -22.81564 | -43.25230 | 31 ft | 7 kts | 255° |
| 2026-05-07 23:46 | -22.81547 | -43.25280 | 31 ft | 7 kts | 295° |
| 2026-05-07 23:46 | -22.81513 | -43.25332 | 31 ft | 9 kts | 306° |
| 2026-05-07 23:46 | -22.81473 | -43.25390 | 31 ft | 9 kts | 304° |
| 2026-05-07 23:47 | -22.81435 | -43.25449 | 31 ft | 9 kts | 305° |
| 2026-05-07 23:47 | -22.81396 | -43.25508 | 31 ft | 9 kts | 306° |
| 2026-05-07 23:47 | -22.81356 | -43.25570 | 31 ft | 10 kts | 305° |
| 2026-05-07 23:47 | -22.81311 | -43.25637 | 31 ft | 11 kts | 305° |
| 2026-05-07 23:48 | -22.81263 | -43.25710 | 31 ft | 12 kts | 307° |
| 2026-05-07 23:48 | -22.81211 | -43.25786 | 31 ft | 12 kts | 306° |
| 2026-05-07 23:48 | -22.81158 | -43.25867 | 31 ft | 13 kts | 304° |
| 2026-05-07 23:48 | -22.81099 | -43.25925 | 31 ft | 11 kts | 358° |
| 2026-05-07 23:49 | -22.81029 | -43.25886 | 31 ft | 11 kts | 37° |
| 2026-05-07 23:49 | -22.80961 | -43.25831 | 31 ft | 12 kts | 36° |
| 2026-05-07 23:49 | -22.80888 | -43.25777 | 31 ft | 12 kts | 34° |
| 2026-05-07 23:49 | -22.80813 | -43.25721 | 31 ft | 13 kts | 36° |
| 2026-05-07 23:50 | -22.80735 | -43.25661 | 31 ft | 13 kts | 36° |
| 2026-05-07 23:50 | -22.80656 | -43.25599 | 31 ft | 14 kts | 36° |
| 2026-05-07 23:50 | -22.80580 | -43.25541 | 31 ft | 9 kts | 34° |
| 2026-05-07 23:50 | -22.80529 | -43.25529 | 31 ft | 7 kts | 345° |
| 2026-05-07 23:51 | -22.80481 | -43.25565 | 31 ft | 8 kts | 323° |
| 2026-05-07 23:51 | -22.80426 | -43.25604 | 31 ft | 10 kts | 329° |
| 2026-05-07 23:51 | -22.80357 | -43.25604 | 31 ft | 10 kts | 20° |
| 2026-05-07 23:51 | -22.80297 | -43.25556 | 31 ft | 11 kts | 38° |
| 2026-05-07 23:52 | -22.80234 | -43.25502 | 31 ft | 11 kts | 38° |
| 2026-05-07 23:52 | -22.80188 | -43.25476 | 31 ft | 5 kts | 12° |
| 2026-05-07 23:52 | -22.80167 | -43.25449 | 31 ft | 0 kts | 73° |
| 2026-05-07 23:53 | -22.80123 | -43.25281 | 31 ft | 60 kts | 73° |
| 2026-05-07 23:53 | -22.79940 | -43.24583 | 31 ft | 127 kts | 73° |
| 2026-05-07 23:53 | -22.79652 | -43.23457 | 57 ft | 178 kts | 75° |
| 2026-05-07 23:53 | -22.79310 | -43.22171 | 686 ft | 179 kts | 73° |
| 2026-05-07 23:54 | -22.78981 | -43.20866 | 1295 ft | 186 kts | 73° |
| 2026-05-07 23:54 | -22.78656 | -43.19447 | 1772 ft | 201 kts | 74° |
| 2026-05-07 23:54 | -22.78306 | -43.17905 | 2145 ft | 223 kts | 75° |
| 2026-05-07 23:54 | -22.77973 | -43.16231 | 2751 ft | 234 kts | 75° |
| 2026-05-07 23:55 | -22.77653 | -43.14484 | 3529 ft | 239 kts | 76° |
| 2026-05-07 23:55 | -22.77335 | -43.12737 | 4281 ft | 243 kts | 75° |
| 2026-05-07 23:55 | -22.77004 | -43.10918 | 5045 ft | 248 kts | 74° |
| 2026-05-07 23:55 | -22.76631 | -43.09100 | 5791 ft | 252 kts | 73° |
| 2026-05-07 23:56 | -22.76275 | -43.07236 | 6544 ft | 258 kts | 75° |
| 2026-05-07 23:56 | -22.76045 | -43.05269 | 7090 ft | 276 kts | 90° |
| 2026-05-07 23:56 | -22.76632 | -43.03205 | 7356 ft | 307 kts | 120° |
| 2026-05-07 23:56 | -22.78205 | -43.01626 | 8044 ft | 317 kts | 153° |
| 2026-05-07 23:57 | -22.80319 | -43.01140 | 9150 ft | 308 kts | 184° |
| 2026-05-07 23:57 | -22.82321 | -43.01799 | 9924 ft | 307 kts | 214° |
| 2026-05-07 23:57 | -22.83809 | -43.03456 | 10456 ft | 312 kts | 244° |
| 2026-05-07 23:57 | -22.84620 | -43.05645 | 10789 ft | 325 kts | 253° |
| 2026-05-07 23:58 | -22.85446 | -43.07986 | 11156 ft | 341 kts | 250° |
| 2026-05-07 23:58 | -22.86446 | -43.10400 | 11637 ft | 352 kts | 245° |
| 2026-05-07 23:58 | -22.87690 | -43.12672 | 12408 ft | 353 kts | 239° |
| 2026-05-07 23:58 | -22.88977 | -43.14935 | 12962 ft | 359 kts | 240° |
| 2026-05-07 23:59 | -22.90316 | -43.17233 | 13539 ft | 364 kts | 239° |
| 2026-05-07 23:59 | -22.91695 | -43.19545 | 14192 ft | 366 kts | 238° |
| 2026-05-07 23:59 | -22.93096 | -43.21851 | 14844 ft | 368 kts | 238° |
| 2026-05-07 23:59 | -22.94520 | -43.24163 | 15448 ft | 371 kts | 237° |
| 2026-05-08 00:00 | -22.95956 | -43.26475 | 16034 ft | 374 kts | 237° |
| 2026-05-08 00:00 | -22.97422 | -43.28820 | 16614 ft | 376 kts | 237° |
| 2026-05-08 00:00 | -22.98899 | -43.31178 | 17187 ft | 378 kts | 236° |
| 2026-05-08 00:00 | -23.00296 | -43.33581 | 17734 ft | 380 kts | 243° |
| 2026-05-08 00:01 | -23.01408 | -43.36204 | 18328 ft | 381 kts | 248° |
| 2026-05-08 00:01 | -23.02422 | -43.38838 | 18909 ft | 382 kts | 248° |
| 2026-05-08 00:01 | -23.03434 | -43.41470 | 19481 ft | 382 kts | 247° |
| 2026-05-08 00:01 | -23.04476 | -43.44130 | 20062 ft | 383 kts | 247° |
| 2026-05-08 00:02 | -23.05529 | -43.46784 | 20631 ft | 383 kts | 246° |
| 2026-05-08 00:02 | -23.06585 | -43.49421 | 21176 ft | 385 kts | 246° |
| 2026-05-08 00:02 | -23.07663 | -43.52096 | 21728 ft | 385 kts | 246° |
| 2026-05-08 00:02 | -23.08738 | -43.54756 | 22270 ft | 386 kts | 246° |
| 2026-05-08 00:03 | -23.09815 | -43.57420 | 22843 ft | 386 kts | 246° |
| 2026-05-08 00:03 | -23.10902 | -43.60101 | 23363 ft | 388 kts | 246° |
| 2026-05-08 00:03 | -23.11983 | -43.62771 | 23883 ft | 390 kts | 246° |
| 2026-05-08 00:03 | -23.13078 | -43.65472 | 24375 ft | 392 kts | 246° |
| 2026-05-08 00:04 | -23.14178 | -43.68190 | 24878 ft | 394 kts | 246° |
| 2026-05-08 00:04 | -23.15272 | -43.70894 | 25366 ft | 396 kts | 246° |
| 2026-05-08 00:04 | -23.16393 | -43.73663 | 25837 ft | 398 kts | 246° |
| 2026-05-08 00:04 | -23.17500 | -43.76403 | 26281 ft | 401 kts | 246° |
| 2026-05-08 00:05 | -23.18626 | -43.79189 | 26770 ft | 402 kts | 246° |
| 2026-05-08 00:05 | -23.19741 | -43.81951 | 27203 ft | 404 kts | 246° |
| 2026-05-08 00:05 | -23.20880 | -43.84772 | 27599 ft | 407 kts | 246° |
| 2026-05-08 00:05 | -23.22019 | -43.87599 | 28010 ft | 409 kts | 246° |
| 2026-05-08 00:06 | -23.23152 | -43.90409 | 28372 ft | 412 kts | 246° |
| 2026-05-08 00:06 | -23.24312 | -43.93293 | 28748 ft | 413 kts | 246° |
| 2026-05-08 00:06 | -23.25463 | -43.96153 | 29116 ft | 415 kts | 246° |
| 2026-05-08 00:06 | -23.26615 | -43.99017 | 29475 ft | 416 kts | 245° |
| 2026-05-08 00:07 | -23.27771 | -44.01894 | 29917 ft | 415 kts | 245° |
| 2026-05-08 00:07 | -23.28913 | -44.04736 | 30379 ft | 413 kts | 245° |
| 2026-05-08 00:07 | -23.30064 | -44.07604 | 30821 ft | 411 kts | 245° |
| 2026-05-08 00:07 | -23.31196 | -44.10426 | 31246 ft | 409 kts | 245° |
| 2026-05-08 00:08 | -23.32318 | -44.13222 | 31647 ft | 407 kts | 245° |
| 2026-05-08 00:08 | -23.33450 | -44.16049 | 32027 ft | 406 kts | 245° |
| 2026-05-08 00:08 | -23.34566 | -44.18837 | 32401 ft | 405 kts | 245° |
| 2026-05-08 00:08 | -23.35699 | -44.21669 | 32708 ft | 405 kts | 245° |
| 2026-05-08 00:09 | -23.36811 | -44.24451 | 32942 ft | 407 kts | 245° |
| 2026-05-08 00:09 | -23.37938 | -44.27270 | 33181 ft | 408 kts | 245° |
| 2026-05-08 00:09 | -23.39073 | -44.30109 | 33486 ft | 408 kts | 245° |
| 2026-05-08 00:09 | -23.40201 | -44.32935 | 33789 ft | 408 kts | 245° |
| 2026-05-08 00:10 | -23.41321 | -44.35741 | 33960 ft | 407 kts | 245° |
| 2026-05-08 00:10 | -23.42448 | -44.38567 | 33963 ft | 407 kts | 245° |
| 2026-05-08 00:10 | -23.44695 | -44.44207 | 33958 ft | 407 kts | 245° |
| 2026-05-08 00:11 | -23.46939 | -44.49844 | 33965 ft | 407 kts | 245° |
| 2026-05-08 00:11 | -23.49187 | -44.55503 | 33974 ft | 406 kts | 245° |
| 2026-05-08 00:12 | -23.51421 | -44.61129 | 33974 ft | 406 kts | 245° |
| 2026-05-08 00:12 | -23.53656 | -44.66770 | 33974 ft | 407 kts | 245° |
| 2026-05-08 00:13 | -23.55897 | -44.72429 | 33979 ft | 406 kts | 245° |
| 2026-05-08 00:13 | -23.58129 | -44.78080 | 33970 ft | 406 kts | 245° |
| 2026-05-08 00:14 | -23.60349 | -44.83700 | 33973 ft | 405 kts | 245° |
| 2026-05-08 00:14 | -23.62574 | -44.89345 | 33975 ft | 406 kts | 245° |
| 2026-05-08 00:15 | -23.64783 | -44.94958 | 33975 ft | 406 kts | 245° |
| 2026-05-08 00:15 | -23.67022 | -45.00647 | 33975 ft | 406 kts | 245° |
| 2026-05-08 00:16 | -23.69230 | -45.06268 | 33972 ft | 405 kts | 245° |
| 2026-05-08 00:16 | -23.71459 | -45.11955 | 33968 ft | 405 kts | 245° |
| 2026-05-08 00:17 | -23.73663 | -45.17583 | 33960 ft | 406 kts | 245° |
| 2026-05-08 00:17 | -23.75694 | -45.23324 | 33953 ft | 406 kts | 250° |
| 2026-05-08 00:18 | -23.77189 | -45.29290 | 33956 ft | 406 kts | 254° |
| 2026-05-08 00:18 | -23.78509 | -45.35265 | 33974 ft | 406 kts | 254° |
| 2026-05-08 00:19 | -23.79831 | -45.41265 | 34168 ft | 412 kts | 255° |
| 2026-05-08 00:19 | -23.81174 | -45.47379 | 34357 ft | 418 kts | 254° |
| 2026-05-08 00:20 | -23.82539 | -45.53612 | 34521 ft | 423 kts | 255° |
| 2026-05-08 00:20 | -23.83910 | -45.59884 | 34700 ft | 427 kts | 255° |
| 2026-05-08 00:21 | -23.84590 | -45.63005 | 34873 ft | 426 kts | 255° |
| 2026-05-08 00:21 | -23.85275 | -45.66143 | 35095 ft | 425 kts | 255° |
| 2026-05-08 00:21 | -23.85972 | -45.69310 | 35380 ft | 422 kts | 255° |
| 2026-05-08 00:21 | -23.86647 | -45.72390 | 35652 ft | 420 kts | 255° |
| 2026-05-08 00:22 | -23.87317 | -45.75453 | 35869 ft | 418 kts | 255° |
| 2026-05-08 00:22 | -23.87995 | -45.78559 | 35932 ft | 418 kts | 255° |
| 2026-05-08 00:22 | -23.89331 | -45.84684 | 35936 ft | 416 kts | 255° |
| 2026-05-08 00:23 | -23.90667 | -45.90822 | 35934 ft | 416 kts | 255° |
| 2026-05-08 00:23 | -23.91998 | -45.96957 | 35928 ft | 416 kts | 255° |
| 2026-05-08 00:24 | -23.93324 | -46.03096 | 35930 ft | 416 kts | 255° |
| 2026-05-08 00:24 | -23.94650 | -46.09230 | 35937 ft | 416 kts | 255° |
| 2026-05-08 00:25 | -23.95975 | -46.15381 | 35943 ft | 416 kts | 255° |
| 2026-05-08 00:25 | -23.97293 | -46.21519 | 35944 ft | 415 kts | 255° |
| 2026-05-08 00:26 | -23.98779 | -46.27607 | 35942 ft | 414 kts | 251° |
| 2026-05-08 00:26 | -24.00641 | -46.33544 | 35929 ft | 414 kts | 250° |
| 2026-05-08 00:27 | -24.02537 | -46.39492 | 35923 ft | 414 kts | 250° |
| 2026-05-08 00:27 | -24.04418 | -46.45404 | 35928 ft | 414 kts | 250° |
| 2026-05-08 00:28 | -24.06307 | -46.51353 | 35930 ft | 414 kts | 250° |
| 2026-05-08 00:28 | -24.08200 | -46.57311 | 35938 ft | 414 kts | 250° |
| 2026-05-08 00:29 | -24.10074 | -46.63213 | 35953 ft | 414 kts | 250° |
| 2026-05-08 00:29 | -24.11961 | -46.69183 | 35963 ft | 414 kts | 251° |
| 2026-05-08 00:30 | -24.13844 | -46.75140 | 35965 ft | 413 kts | 251° |
| 2026-05-08 00:30 | -24.15714 | -46.81057 | 35965 ft | 414 kts | 251° |
| 2026-05-08 00:31 | -24.17584 | -46.86982 | 35969 ft | 414 kts | 251° |
| 2026-05-08 00:31 | -24.19467 | -46.92957 | 35972 ft | 414 kts | 251° |
| 2026-05-08 00:32 | -24.21322 | -46.98871 | 35971 ft | 413 kts | 251° |
| 2026-05-08 00:32 | -24.23189 | -47.04825 | 35959 ft | 413 kts | 251° |
| 2026-05-08 00:33 | -24.25042 | -47.10751 | 35956 ft | 413 kts | 251° |
| 2026-05-08 00:33 | -24.26873 | -47.16690 | 35958 ft | 412 kts | 252° |
| 2026-05-08 00:34 | -24.28622 | -47.22683 | 35959 ft | 411 kts | 252° |
| 2026-05-08 00:34 | -24.30345 | -47.28623 | 35958 ft | 411 kts | 252° |
| 2026-05-08 00:35 | -24.32087 | -47.34619 | 35961 ft | 412 kts | 252° |
| 2026-05-08 00:35 | -24.33815 | -47.40576 | 35958 ft | 411 kts | 252° |
| 2026-05-08 00:36 | -24.35539 | -47.46520 | 35952 ft | 412 kts | 252° |
| 2026-05-08 00:36 | -24.37267 | -47.52501 | 35948 ft | 412 kts | 252° |
| 2026-05-08 00:37 | -24.38989 | -47.58463 | 35943 ft | 412 kts | 253° |
| 2026-05-08 00:38 | -24.41547 | -47.67443 | 35938 ft | 411 kts | 255° |
| 2026-05-08 00:38 | -24.42843 | -47.73512 | 35937 ft | 410 kts | 258° |
| 2026-05-08 00:39 | -24.43955 | -47.79676 | 35928 ft | 410 kts | 259° |
| 2026-05-08 00:39 | -24.45047 | -47.85796 | 35925 ft | 410 kts | 259° |
| 2026-05-08 00:40 | -24.46133 | -47.91896 | 35928 ft | 410 kts | 259° |
| 2026-05-08 00:40 | -24.47223 | -47.98041 | 35925 ft | 410 kts | 259° |
| 2026-05-08 00:41 | -24.48305 | -48.04158 | 35929 ft | 410 kts | 259° |
| 2026-05-08 00:41 | -24.49389 | -48.10292 | 35927 ft | 409 kts | 259° |
| 2026-05-08 00:42 | -24.50462 | -48.16388 | 35928 ft | 409 kts | 259° |
| 2026-05-08 00:42 | -24.51533 | -48.22488 | 35936 ft | 408 kts | 259° |
| 2026-05-08 00:43 | -24.52604 | -48.28587 | 35939 ft | 408 kts | 259° |
| 2026-05-08 00:43 | -24.53678 | -48.34731 | 35945 ft | 408 kts | 259° |
| 2026-05-08 00:44 | -24.54741 | -48.40836 | 35951 ft | 409 kts | 259° |
| 2026-05-08 00:44 | -24.55803 | -48.46932 | 35955 ft | 408 kts | 259° |
| 2026-05-08 00:45 | -24.56860 | -48.53028 | 35966 ft | 408 kts | 259° |
| 2026-05-08 00:45 | -24.57918 | -48.59146 | 35983 ft | 406 kts | 259° |
| 2026-05-08 00:46 | -24.58972 | -48.65245 | 35995 ft | 407 kts | 260° |
| 2026-05-08 00:46 | -24.60020 | -48.71344 | 36010 ft | 407 kts | 260° |
| 2026-05-08 00:47 | -24.61065 | -48.77414 | 36025 ft | 407 kts | 261° |
| 2026-05-08 00:47 | -24.62107 | -48.83495 | 36024 ft | 406 kts | 261° |
| 2026-05-08 00:48 | -24.63152 | -48.89609 | 36029 ft | 406 kts | 261° |
| 2026-05-08 00:48 | -24.64187 | -48.95678 | 36031 ft | 406 kts | 261° |
| 2026-05-08 00:49 | -24.65224 | -49.01775 | 36030 ft | 405 kts | 261° |
| 2026-05-08 00:49 | -24.66255 | -49.07863 | 36023 ft | 406 kts | 261° |
| 2026-05-08 00:50 | -24.67285 | -49.13937 | 36013 ft | 405 kts | 261° |
| 2026-05-08 00:50 | -24.68305 | -49.19977 | 36003 ft | 405 kts | 261° |
| 2026-05-08 00:51 | -24.69327 | -49.26048 | 35993 ft | 405 kts | 261° |
| 2026-05-08 00:51 | -24.70346 | -49.32119 | 35996 ft | 404 kts | 261° |
| 2026-05-08 00:52 | -24.71359 | -49.38174 | 36001 ft | 404 kts | 261° |
| 2026-05-08 00:52 | -24.72369 | -49.44221 | 36007 ft | 403 kts | 261° |
| 2026-05-08 00:53 | -24.73376 | -49.50261 | 36016 ft | 403 kts | 261° |
| 2026-05-08 00:53 | -24.74383 | -49.56324 | 36023 ft | 403 kts | 261° |
| 2026-05-08 00:54 | -24.75386 | -49.62369 | 36032 ft | 402 kts | 261° |
| 2026-05-08 00:54 | -24.76380 | -49.68391 | 36039 ft | 402 kts | 261° |
| 2026-05-08 00:55 | -24.77381 | -49.74448 | 36051 ft | 402 kts | 262° |
| 2026-05-08 00:55 | -24.78369 | -49.80469 | 36048 ft | 401 kts | 261° |
| 2026-05-08 00:56 | -24.79355 | -49.86469 | 36041 ft | 401 kts | 261° |
| 2026-05-08 00:56 | -24.80342 | -49.92498 | 36038 ft | 401 kts | 262° |
| 2026-05-08 00:57 | -24.81324 | -49.98517 | 36029 ft | 401 kts | 262° |
| 2026-05-08 00:57 | -24.82305 | -50.04558 | 36029 ft | 401 kts | 262° |
| 2026-05-08 00:58 | -24.83279 | -50.10563 | 36030 ft | 401 kts | 262° |
| 2026-05-08 00:58 | -24.84253 | -50.16581 | 36032 ft | 400 kts | 262° |
| 2026-05-08 00:59 | -24.85228 | -50.22620 | 36032 ft | 400 kts | 262° |
| 2026-05-08 00:59 | -24.86199 | -50.28628 | 36026 ft | 399 kts | 262° |
| 2026-05-08 01:00 | -24.87161 | -50.34636 | 36020 ft | 400 kts | 262° |
| 2026-05-08 01:00 | -24.88121 | -50.40628 | 36022 ft | 400 kts | 262° |
| 2026-05-08 01:01 | -24.89084 | -50.46651 | 36017 ft | 399 kts | 262° |
| 2026-05-08 01:01 | -24.90043 | -50.52660 | 36010 ft | 399 kts | 262° |
| 2026-05-08 01:02 | -24.90996 | -50.58678 | 36010 ft | 399 kts | 262° |
| 2026-05-08 01:02 | -24.91943 | -50.64642 | 36010 ft | 398 kts | 262° |
| 2026-05-08 01:03 | -24.92898 | -50.70681 | 36008 ft | 399 kts | 263° |
| 2026-05-08 01:03 | -24.93844 | -50.76674 | 36007 ft | 399 kts | 263° |
| 2026-05-08 01:04 | -24.94790 | -50.82703 | 36000 ft | 399 kts | 263° |
| 2026-05-08 01:04 | -24.95730 | -50.88688 | 35984 ft | 399 kts | 263° |
| 2026-05-08 01:05 | -24.96674 | -50.94724 | 35966 ft | 398 kts | 263° |
| 2026-05-08 01:05 | -24.97606 | -51.00707 | 35954 ft | 398 kts | 263° |
| 2026-05-08 01:06 | -24.98540 | -51.06708 | 35952 ft | 398 kts | 263° |
| 2026-05-08 01:06 | -24.99473 | -51.12713 | 35965 ft | 398 kts | 263° |
| 2026-05-08 01:07 | -25.00397 | -51.18696 | 35978 ft | 398 kts | 263° |
| 2026-05-08 01:07 | -25.01322 | -51.24690 | 35994 ft | 398 kts | 263° |
| 2026-05-08 01:08 | -25.02245 | -51.30699 | 36004 ft | 398 kts | 263° |
| 2026-05-08 01:08 | -25.03170 | -51.36715 | 36006 ft | 398 kts | 263° |
| 2026-05-08 01:09 | -25.04085 | -51.42694 | 36006 ft | 398 kts | 263° |
| 2026-05-08 01:09 | -25.04997 | -51.48671 | 36013 ft | 397 kts | 263° |
| 2026-05-08 01:10 | -25.05912 | -51.54684 | 36007 ft | 397 kts | 263° |
| 2026-05-08 01:10 | -25.06818 | -51.60657 | 36008 ft | 397 kts | 263° |
| 2026-05-08 01:11 | -25.07722 | -51.66631 | 36010 ft | 396 kts | 264° |
| 2026-05-08 01:11 | -25.08631 | -51.72649 | 36009 ft | 396 kts | 264° |
| 2026-05-08 01:12 | -25.09526 | -51.78598 | 36006 ft | 395 kts | 264° |
| 2026-05-08 01:12 | -25.10423 | -51.84583 | 35994 ft | 395 kts | 264° |
| 2026-05-08 01:13 | -25.11313 | -51.90540 | 35998 ft | 395 kts | 264° |
| 2026-05-08 01:13 | -25.12197 | -51.96466 | 35991 ft | 395 kts | 264° |
| 2026-05-08 01:14 | -25.13083 | -52.02428 | 35975 ft | 393 kts | 264° |
| 2026-05-08 01:14 | -25.13968 | -52.08380 | 35970 ft | 395 kts | 264° |
| 2026-05-08 01:15 | -25.14853 | -52.14381 | 35970 ft | 395 kts | 264° |
| 2026-05-08 01:15 | -25.15733 | -52.20339 | 35961 ft | 395 kts | 264° |
| 2026-05-08 01:16 | -25.16607 | -52.26287 | 35965 ft | 394 kts | 264° |
| 2026-05-08 01:16 | -25.17484 | -52.32262 | 35961 ft | 394 kts | 264° |
| 2026-05-08 01:17 | -25.18350 | -52.38172 | 35958 ft | 393 kts | 264° |
| 2026-05-08 01:17 | -25.19220 | -52.44155 | 35682 ft | 393 kts | 264° |
| 2026-05-08 01:17 | -25.19649 | -52.47085 | 35361 ft | 392 kts | 264° |
| 2026-05-08 01:18 | -25.20082 | -52.50065 | 34822 ft | 389 kts | 264° |
| 2026-05-08 01:18 | -25.20507 | -52.52988 | 34184 ft | 388 kts | 264° |
| 2026-05-08 01:18 | -25.20929 | -52.55910 | 33477 ft | 389 kts | 264° |
| 2026-05-08 01:18 | -25.21354 | -52.58845 | 32793 ft | 390 kts | 264° |
| 2026-05-08 01:19 | -25.21781 | -52.61797 | 32059 ft | 391 kts | 265° |
| 2026-05-08 01:19 | -25.22209 | -52.64753 | 31482 ft | 388 kts | 265° |
| 2026-05-08 01:19 | -25.22635 | -52.67698 | 31007 ft | 384 kts | 266° |
| 2026-05-08 01:19 | -25.23046 | -52.70556 | 30543 ft | 381 kts | 266° |
| 2026-05-08 01:20 | -25.23462 | -52.73450 | 30059 ft | 378 kts | 266° |
| 2026-05-08 01:20 | -25.23874 | -52.76312 | 29580 ft | 375 kts | 266° |
| 2026-05-08 01:20 | -25.24275 | -52.79113 | 29112 ft | 373 kts | 267° |
| 2026-05-08 01:20 | -25.24678 | -52.81934 | 28623 ft | 371 kts | 267° |
| 2026-05-08 01:21 | -25.25071 | -52.84714 | 28162 ft | 368 kts | 267° |
| 2026-05-08 01:21 | -25.25465 | -52.87481 | 27709 ft | 365 kts | 267° |
| 2026-05-08 01:21 | -25.25862 | -52.90262 | 27248 ft | 363 kts | 267° |
| 2026-05-08 01:21 | -25.26248 | -52.92992 | 26812 ft | 360 kts | 267° |
| 2026-05-08 01:22 | -25.26631 | -52.95691 | 26377 ft | 358 kts | 267° |
| 2026-05-08 01:22 | -25.27013 | -52.98385 | 25930 ft | 356 kts | 268° |
| 2026-05-08 01:22 | -25.27396 | -53.01087 | 25489 ft | 354 kts | 268° |
| 2026-05-08 01:22 | -25.27770 | -53.03741 | 25056 ft | 352 kts | 268° |
| 2026-05-08 01:23 | -25.28143 | -53.06387 | 24618 ft | 350 kts | 268° |
| 2026-05-08 01:23 | -25.28513 | -53.09022 | 24178 ft | 348 kts | 268° |
| 2026-05-08 01:23 | -25.28881 | -53.11657 | 23732 ft | 346 kts | 268° |
| 2026-05-08 01:23 | -25.29246 | -53.14254 | 23289 ft | 345 kts | 268° |
| 2026-05-08 01:24 | -25.29614 | -53.16870 | 22850 ft | 344 kts | 268° |
| 2026-05-08 01:24 | -25.30063 | -53.19483 | 22393 ft | 346 kts | 264° |
| 2026-05-08 01:24 | -25.30601 | -53.22065 | 21951 ft | 346 kts | 264° |
| 2026-05-08 01:24 | -25.31146 | -53.24637 | 21514 ft | 345 kts | 264° |
| 2026-05-08 01:25 | -25.31687 | -53.27189 | 21087 ft | 343 kts | 264° |
| 2026-05-08 01:25 | -25.32233 | -53.29764 | 20637 ft | 343 kts | 264° |
| 2026-05-08 01:25 | -25.32772 | -53.32315 | 20201 ft | 341 kts | 264° |
| 2026-05-08 01:25 | -25.33310 | -53.34862 | 19758 ft | 340 kts | 264° |
| 2026-05-08 01:26 | -25.33845 | -53.37394 | 19300 ft | 340 kts | 264° |
| 2026-05-08 01:26 | -25.34377 | -53.39915 | 18855 ft | 339 kts | 264° |
| 2026-05-08 01:26 | -25.34913 | -53.42459 | 18412 ft | 338 kts | 264° |
| 2026-05-08 01:26 | -25.35436 | -53.44948 | 17982 ft | 336 kts | 264° |
| 2026-05-08 01:27 | -25.35966 | -53.47475 | 17537 ft | 335 kts | 263° |
| 2026-05-08 01:27 | -25.36488 | -53.49965 | 17103 ft | 333 kts | 263° |
| 2026-05-08 01:27 | -25.37005 | -53.52421 | 16681 ft | 332 kts | 263° |
| 2026-05-08 01:27 | -25.37528 | -53.54913 | 16250 ft | 330 kts | 264° |
| 2026-05-08 01:28 | -25.38041 | -53.57369 | 15827 ft | 328 kts | 263° |
| 2026-05-08 01:28 | -25.38549 | -53.59798 | 15393 ft | 326 kts | 263° |
| 2026-05-08 01:28 | -25.39056 | -53.62220 | 14974 ft | 325 kts | 264° |
| 2026-05-08 01:28 | -25.39567 | -53.64671 | 14553 ft | 323 kts | 263° |
| 2026-05-08 01:29 | -25.40072 | -53.67083 | 14137 ft | 321 kts | 264° |
| 2026-05-08 01:29 | -25.40567 | -53.69466 | 13721 ft | 319 kts | 264° |
| 2026-05-08 01:29 | -25.41062 | -53.71860 | 13307 ft | 318 kts | 264° |
| 2026-05-08 01:29 | -25.41557 | -53.74218 | 12899 ft | 316 kts | 264° |
| 2026-05-08 01:30 | -25.42043 | -53.76562 | 12486 ft | 315 kts | 264° |
| 2026-05-08 01:30 | -25.42534 | -53.78931 | 12059 ft | 314 kts | 264° |
| 2026-05-08 01:30 | -25.43019 | -53.81265 | 11635 ft | 313 kts | 264° |
| 2026-05-08 01:30 | -25.43515 | -53.83598 | 11202 ft | 312 kts | 264° |
| 2026-05-08 01:31 | -25.44022 | -53.85922 | 10766 ft | 311 kts | 263° |
| 2026-05-08 01:31 | -25.44526 | -53.88233 | 10330 ft | 311 kts | 264° |
| 2026-05-08 01:31 | -25.45024 | -53.90517 | 10122 ft | 300 kts | 264° |
| 2026-05-08 01:31 | -25.45507 | -53.92725 | 10009 ft | 287 kts | 264° |
| 2026-05-08 01:32 | -25.45961 | -53.94808 | 9896 ft | 275 kts | 264° |
| 2026-05-08 01:32 | -25.46401 | -53.96846 | 9716 ft | 267 kts | 265° |
| 2026-05-08 01:32 | -25.46825 | -53.98824 | 9357 ft | 266 kts | 265° |
| 2026-05-08 01:32 | -25.47259 | -54.00818 | 8998 ft | 267 kts | 263° |
| 2026-05-08 01:33 | -25.47954 | -54.02727 | 8644 ft | 276 kts | 251° |
| 2026-05-08 01:33 | -25.49034 | -54.04521 | 8282 ft | 283 kts | 242° |
| 2026-05-08 01:33 | -25.50246 | -54.06245 | 7954 ft | 282 kts | 241° |
| 2026-05-08 01:33 | -25.51464 | -54.07947 | 7634 ft | 280 kts | 241° |
| 2026-05-08 01:34 | -25.52661 | -54.09623 | 7305 ft | 280 kts | 241° |
| 2026-05-08 01:34 | -25.53857 | -54.11306 | 6971 ft | 279 kts | 242° |
| 2026-05-08 01:34 | -25.55063 | -54.13015 | 6637 ft | 278 kts | 242° |
| 2026-05-08 01:34 | -25.56241 | -54.14688 | 6305 ft | 278 kts | 242° |
| 2026-05-08 01:35 | -25.57426 | -54.16378 | 5968 ft | 278 kts | 242° |
| 2026-05-08 01:35 | -25.58603 | -54.18056 | 5641 ft | 277 kts | 241° |
| 2026-05-08 01:35 | -25.59799 | -54.19758 | 5306 ft | 276 kts | 240° |
| 2026-05-08 01:35 | -25.60968 | -54.21419 | 4988 ft | 275 kts | 241° |
| 2026-05-08 01:36 | -25.62140 | -54.23088 | 4666 ft | 274 kts | 240° |
| 2026-05-08 01:36 | -25.63329 | -54.24735 | 4346 ft | 274 kts | 238° |
| 2026-05-08 01:36 | -25.64549 | -54.26341 | 4181 ft | 266 kts | 238° |
| 2026-05-08 01:36 | -25.65727 | -54.27869 | 4160 ft | 251 kts | 238° |
| 2026-05-08 01:37 | -25.66822 | -54.29296 | 4124 ft | 237 kts | 238° |
| 2026-05-08 01:37 | -25.67855 | -54.30647 | 4081 ft | 224 kts | 239° |
| 2026-05-08 01:37 | -25.68825 | -54.31980 | 3966 ft | 214 kts | 249° |
| 2026-05-08 01:37 | -25.69112 | -54.33393 | 3859 ft | 175 kts | 290° |
| 2026-05-08 01:38 | -25.68599 | -54.34496 | 3733 ft | 154 kts | 307° |
| 2026-05-08 01:38 | -25.68086 | -54.35514 | 3596 ft | 148 kts | 303° |
| 2026-05-08 01:38 | -25.67617 | -54.36529 | 3355 ft | 147 kts | 302° |
| 2026-05-08 01:38 | -25.67162 | -54.37540 | 3128 ft | 146 kts | 301° |
| 2026-05-08 01:39 | -25.66720 | -54.38543 | 2928 ft | 145 kts | 302° |
| 2026-05-08 01:39 | -25.66279 | -54.39543 | 2726 ft | 144 kts | 303° |
| 2026-05-08 01:39 | -25.65770 | -54.40506 | 2504 ft | 144 kts | 309° |
| 2026-05-08 01:39 | -25.65193 | -54.41413 | 2326 ft | 144 kts | 309° |
| 2026-05-08 01:40 | -25.64601 | -54.42290 | 2151 ft | 143 kts | 314° |
| 2026-05-08 01:40 | -25.63956 | -54.43141 | 1948 ft | 143 kts | 313° |
| 2026-05-08 01:40 | -25.63305 | -54.43977 | 1753 ft | 143 kts | 314° |
| 2026-05-08 01:40 | -25.62648 | -54.44798 | 1593 ft | 143 kts | 312° |
| 2026-05-08 01:41 | -25.62007 | -54.45637 | 1349 ft | 142 kts | 311° |
| 2026-05-08 01:41 | -25.61359 | -54.46463 | 1177 ft | 141 kts | 313° |
| 2026-05-08 01:41 | -25.60715 | -54.47290 | 993 ft | 143 kts | 314° |
| 2026-05-08 01:41 | -25.60053 | -54.48129 | 809 ft | 144 kts | 312° |
| 2026-05-08 01:42 | -25.59485 | -54.48840 | 774 ft | 86 kts | 310° |
| 2026-05-08 01:42 | -25.59301 | -54.49096 | 764 ft | 3 kts | 307° |
| 2026-05-08 01:42 | -25.59262 | -54.49148 | 762 ft | 13 kts | 310° |
| 2026-05-08 01:42 | -25.59181 | -54.49239 | 757 ft | 19 kts | 321° |
| 2026-05-08 01:43 | -25.59077 | -54.49372 | 749 ft | 25 kts | 310° |
| 2026-05-08 01:43 | -25.58992 | -54.49477 | 743 ft | 17 kts | 328° |
| 2026-05-08 01:43 | -25.58943 | -54.49524 | 740 ft | 5 kts | 202° |
| 2026-05-08 01:43 | -25.58977 | -54.49491 | 742 ft | 10 kts | 135° |
| 2026-05-08 01:44 | -25.59052 | -54.49404 | 747 ft | 19 kts | 133° |
| 2026-05-08 01:44 | -25.59140 | -54.49295 | 754 ft | 18 kts | 130° |
| 2026-05-08 01:44 | -25.59229 | -54.49184 | 760 ft | 20 kts | 131° |
| 2026-05-08 01:44 | -25.59320 | -54.49067 | 766 ft | 18 kts | 130° |
| 2026-05-08 01:45 | -25.59398 | -54.48964 | 770 ft | 16 kts | 129° |
| 2026-05-08 01:45 | -25.59459 | -54.48890 | 773 ft | 8 kts | 149° |
| 2026-05-08 01:45 | -25.59514 | -54.48911 | 773 ft | 9 kts | 220° |
| 2026-05-08 01:45 | -25.59566 | -54.48924 | 774 ft | 8 kts | 144° |
| 2026-05-08 01:46 | -25.59599 | -54.48884 | 775 ft | 5 kts | 128° |
| 2026-05-08 01:46 | -25.59617 | -54.48860 | 776 ft | 2 kts | 128° |
| 2026-05-08 01:46 | -25.59626 | -54.48851 | 777 ft | 1 kts | 159° |
| 2026-05-08 01:46 | -25.59644 | -54.48858 | 777 ft | 4 kts | 215° |
| 2026-05-08 01:47 | -25.59668 | -54.48883 | 777 ft | 4 kts | 221° |
| 2026-05-08 01:47 | -25.59673 | -54.48888 | 777 ft | 0 kts | 221° |